New Branch, Georgia
Current Conditions -  °F | °C
As of 10:15 AM on Tuesday 21 Oct 2014 (Local Time) from KVDI Reporting Station
Clear Clear  
Wind Chill: 70°   Ceiling: Unl
Heat Index: 70°   Visibility: 10mi
Dew Point: 55°   Wind: 3mph
Humidity: 60%   Direction: 320°NW
Pressure: 30.02"   Gusts: NA
Location:  32.1105°N, 82.281°W
Report Text: KVDI 211415Z AUTO 32003KT 10SM CLR 21/13 A3002 RMK AO2
Loading
Personal Weather Stations






























Interactive Weather Map
Tropical Storm Tracking
New forecast layout! Learn more

10-Day Weather Forecast

Advertisements
Track Severe Weather on mobile